sensor_id;sensor_type;location;lat;lon;timestamp;P1;durP1;ratioP1;P2;durP2;ratioP2
74160;SDS011;62512;-46.434;168.382;2022-08-03T00:00:20;10.9;;;3.1;;
74160;SDS011;62512;-46.434;168.382;2022-08-03T00:01:20;11.7;;;2.3;;
74160;SDS011;62512;-46.434;168.382;2022-08-03T00:02:20;13.5;;;3.2;;
74160;SDS011;62512;-46.434;168.382;2022-08-03T00:03:20;14.8;;;3.2;;
74160;SDS011;62512;-46.434;168.382;2022-08-03T00:04:20;13.9;;;2.8;;
74160;SDS011;62512;-46.434;168.382;2022-08-03T00:05:20;12.0;;;2.8;;
74160;SDS011;62512;-46.434;168.382;2022-08-03T00:06:20;13.3;;;2.6;;
74160;SDS011;62512;-46.434;168.382;2022-08-03T00:07:20;13.4;;;3.0;;
74160;SDS011;62512;-46.434;168.382;2022-08-03T00:08:20;13.1;;;3.4;;
74160;SDS011;62512;-46.434;168.382;2022-08-03T00:09:20;14.8;;;3.6;;
74160;SDS011;62512;-46.434;168.382;2022-08-03T00:10:20;11.9;;;2.6;;
74160;SDS011;62512;-46.434;168.382;2022-08-03T00:11:20;9.9;;;2.5;;
74160;SDS011;62512;-46.434;168.382;2022-08-03T00:12:20;10.7;;;2.3;;
74160;SDS011;62512;-46.434;168.382;2022-08-03T00:13:20;9.2;;;2.3;;
74160;SDS011;62512;-46.434;168.382;2022-08-03T00:14:20;11.7;;;3.0;;
74160;SDS011;62512;-46.434;168.382;2022-08-03T00:15:20;11.6;;;3.1;;
74160;SDS011;62512;-46.434;168.382;2022-08-03T00:16:20;11.6;;;2.8;;
74160;SDS011;62512;-46.434;168.382;2022-08-03T00:17:20;11.3;;;3.1;;
74160;SDS011;62512;-46.434;168.382;2022-08-03T00:18:20;11.1;;;3.2;;
74160;SDS011;62512;-46.434;168.382;2022-08-03T00:19:20;10.7;;;2.8;;
74160;SDS011;62512;-46.434;168.382;2022-08-03T00:20:20;11.3;;;2.8;;
74160;SDS011;62512;-46.434;168.382;2022-08-03T00:21:20;11.4;;;2.8;;
74160;SDS011;62512;-46.434;168.382;2022-08-03T00:22:20;12.4;;;2.8;;
74160;SDS011;62512;-46.434;168.382;2022-08-03T00:23:20;10.8;;;2.4;;
74160;SDS011;62512;-46.434;168.382;2022-08-03T00:25:20;10.0;;;2.4;;
74160;SDS011;62512;-46.434;168.382;2022-08-03T00:26:20;14.3;;;2.6;;
74160;SDS011;62512;-46.434;168.382;2022-08-03T00:27:20;14.6;;;2.9;;
74160;SDS011;62512;-46.434;168.382;2022-08-03T00:28:20;12.4;;;2.8;;
74160;SDS011;62512;-46.434;168.382;2022-08-03T00:29:20;13.3;;;2.6;;
74160;SDS011;62512;-46.434;168.382;2022-08-03T00:30:20;15.6;;;2.6;;
74160;SDS011;62512;-46.434;168.382;2022-08-03T00:33:20;11.4;;;2.4;;
74160;SDS011;62512;-46.434;168.382;2022-08-03T00:34:20;15.4;;;2.9;;
74160;SDS011;62512;-46.434;168.382;2022-08-03T00:35:20;13.9;;;2.7;;
74160;SDS011;62512;-46.434;168.382;2022-08-03T00:36:20;15.4;;;3.6;;
74160;SDS011;62512;-46.434;168.382;2022-08-03T00:37:20;15.9;;;3.6;;
74160;SDS011;62512;-46.434;168.382;2022-08-03T00:38:20;15.0;;;3.5;;
74160;SDS011;62512;-46.434;168.382;2022-08-03T00:39:20;16.3;;;3.2;;
74160;SDS011;62512;-46.434;168.382;2022-08-03T00:40:20;19.1;;;3.5;;
74160;SDS011;62512;-46.434;168.382;2022-08-03T00:41:20;16.8;;;4.3;;
74160;SDS011;62512;-46.434;168.382;2022-08-03T00:42:20;18.2;;;4.6;;
74160;SDS011;62512;-46.434;168.382;2022-08-03T00:43:24;16.7;;;4.3;;
74160;SDS011;62512;-46.434;168.382;2022-08-03T00:45:23;22.1;;;4.0;;
74160;SDS011;62512;-46.434;168.382;2022-08-03T00:46:20;22.7;;;4.5;;
74160;SDS011;62512;-46.434;168.382;2022-08-03T00:47:20;17.5;;;3.7;;
74160;SDS011;62512;-46.434;168.382;2022-08-03T00:48:20;17.1;;;3.6;;
74160;SDS011;62512;-46.434;168.382;2022-08-03T00:49:20;15.7;;;3.8;;
74160;SDS011;62512;-46.434;168.382;2022-08-03T00:50:22;12.9;;;3.1;;
74160;SDS011;62512;-46.434;168.382;2022-08-03T00:51:21;12.4;;;2.9;;
74160;SDS011;62512;-46.434;168.382;2022-08-03T00:52:20;11.4;;;2.4;;
74160;SDS011;62512;-46.434;168.382;2022-08-03T00:53:20;12.2;;;2.6;;
74160;SDS011;62512;-46.434;168.382;2022-08-03T00:54:20;14.9;;;2.4;;
74160;SDS011;62512;-46.434;168.382;2022-08-03T00:55:21;13.3;;;2.9;;
74160;SDS011;62512;-46.434;168.382;2022-08-03T00:56:20;13.5;;;3.0;;
74160;SDS011;62512;-46.434;168.382;2022-08-03T00:57:20;12.2;;;2.5;;
74160;SDS011;62512;-46.434;168.382;2022-08-03T00:58:20;11.1;;;2.8;;
74160;SDS011;62512;-46.434;168.382;2022-08-03T01:01:20;10.9;;;2.9;;
74160;SDS011;62512;-46.434;168.382;2022-08-03T01:02:20;14.4;;;3.1;;
74160;SDS011;62512;-46.434;168.382;2022-08-03T01:03:20;12.4;;;3.0;;
74160;SDS011;62512;-46.434;168.382;2022-08-03T01:04:20;10.9;;;2.7;;
74160;SDS011;62512;-46.434;168.382;2022-08-03T01:05:21;13.0;;;2.9;;
74160;SDS011;62512;-46.434;168.382;2022-08-03T01:08:27;11.2;;;2.3;;
74160;SDS011;62512;-46.434;168.382;2022-08-03T01:09:26;15.3;;;2.6;;
74160;SDS011;62512;-46.434;168.382;2022-08-03T01:12:27;12.3;;;2.8;;
74160;SDS011;62512;-46.434;168.382;2022-08-03T01:14:26;17.1;;;3.0;;
74160;SDS011;62512;-46.434;168.382;2022-08-03T01:15:27;15.0;;;3.6;;
74160;SDS011;62512;-46.434;168.382;2022-08-03T01:16:29;9.9;;;2.2;;
74160;SDS011;62512;-46.434;168.382;2022-08-03T01:17:27;14.9;;;3.4;;
74160;SDS011;62512;-46.434;168.382;2022-08-03T01:20:21;14.2;;;2.7;;
74160;SDS011;62512;-46.434;168.382;2022-08-03T01:21:26;14.1;;;2.6;;
74160;SDS011;62512;-46.434;168.382;2022-08-03T01:24:43;9.5;;;2.1;;
74160;SDS011;62512;-46.434;168.382;2022-08-03T01:27:30;12.7;;;2.9;;
74160;SDS011;62512;-46.434;168.382;2022-08-03T01:30:22;15.8;;;3.0;;
74160;SDS011;62512;-46.434;168.382;2022-08-03T01:31:25;22.1;;;4.4;;
74160;SDS011;62512;-46.434;168.382;2022-08-03T01:32:25;16.1;;;3.0;;
74160;SDS011;62512;-46.434;168.382;2022-08-03T01:33:27;17.0;;;3.6;;
74160;SDS011;62512;-46.434;168.382;2022-08-03T01:34:21;16.7;;;3.5;;
74160;SDS011;62512;-46.434;168.382;2022-08-03T01:35:25;16.8;;;3.8;;
74160;SDS011;62512;-46.434;168.382;2022-08-03T01:36:23;16.6;;;4.3;;
74160;SDS011;62512;-46.434;168.382;2022-08-03T01:37:25;18.5;;;4.2;;
74160;SDS011;62512;-46.434;168.382;2022-08-03T01:38:23;21.9;;;4.8;;
74160;SDS011;62512;-46.434;168.382;2022-08-03T01:39:21;12.5;;;3.2;;
74160;SDS011;62512;-46.434;168.382;2022-08-03T01:40:21;18.8;;;4.1;;
74160;SDS011;62512;-46.434;168.382;2022-08-03T01:41:24;24.6;;;4.4;;
74160;SDS011;62512;-46.434;168.382;2022-08-03T01:42:21;16.0;;;3.1;;
74160;SDS011;62512;-46.434;168.382;2022-08-03T01:43:24;18.3;;;3.3;;
74160;SDS011;62512;-46.434;168.382;2022-08-03T01:44:21;17.4;;;3.4;;
74160;SDS011;62512;-46.434;168.382;2022-08-03T01:45:21;15.5;;;3.4;;
74160;SDS011;62512;-46.434;168.382;2022-08-03T01:46:21;15.0;;;2.8;;
74160;SDS011;62512;-46.434;168.382;2022-08-03T01:47:21;13.0;;;2.8;;
74160;SDS011;62512;-46.434;168.382;2022-08-03T01:48:20;13.7;;;2.8;;
74160;SDS011;62512;-46.434;168.382;2022-08-03T01:49:20;16.6;;;3.6;;
74160;SDS011;62512;-46.434;168.382;2022-08-03T01:50:24;11.9;;;3.0;;
74160;SDS011;62512;-46.434;168.382;2022-08-03T01:51:21;13.5;;;2.8;;
74160;SDS011;62512;-46.434;168.382;2022-08-03T01:52:20;9.1;;;1.9;;
74160;SDS011;62512;-46.434;168.382;2022-08-03T01:53:20;15.4;;;4.0;;
74160;SDS011;62512;-46.434;168.382;2022-08-03T01:55:22;11.6;;;3.0;;
74160;SDS011;62512;-46.434;168.382;2022-08-03T01:56:22;15.7;;;2.8;;
74160;SDS011;62512;-46.434;168.382;2022-08-03T01:57:21;11.8;;;2.7;;
74160;SDS011;62512;-46.434;168.382;2022-08-03T01:58:21;15.0;;;3.1;;
74160;SDS011;62512;-46.434;168.382;2022-08-03T01:59:21;12.7;;;2.8;;
74160;SDS011;62512;-46.434;168.382;2022-08-03T02:00:20;19.1;;;3.1;;
74160;SDS011;62512;-46.434;168.382;2022-08-03T02:01:21;15.0;;;3.4;;
74160;SDS011;62512;-46.434;168.382;2022-08-03T02:02:20;15.1;;;2.9;;
74160;SDS011;62512;-46.434;168.382;2022-08-03T02:03:21;13.2;;;2.7;;
74160;SDS011;62512;-46.434;168.382;2022-08-03T02:04:22;12.3;;;2.7;;
74160;SDS011;62512;-46.434;168.382;2022-08-03T02:05:20;16.6;;;3.5;;
74160;SDS011;62512;-46.434;168.382;2022-08-03T02:06:21;14.8;;;2.7;;
74160;SDS011;62512;-46.434;168.382;2022-08-03T02:07:20;18.0;;;4.4;;
74160;SDS011;62512;-46.434;168.382;2022-08-03T02:08:22;17.8;;;3.1;;
74160;SDS011;62512;-46.434;168.382;2022-08-03T02:09:21;17.3;;;3.0;;
74160;SDS011;62512;-46.434;168.382;2022-08-03T02:10:21;10.6;;;3.1;;
74160;SDS011;62512;-46.434;168.382;2022-08-03T02:11:20;16.8;;;3.6;;
74160;SDS011;62512;-46.434;168.382;2022-08-03T02:12:24;16.0;;;2.6;;
74160;SDS011;62512;-46.434;168.382;2022-08-03T02:13:20;14.5;;;2.8;;
74160;SDS011;62512;-46.434;168.382;2022-08-03T02:14:21;12.6;;;2.9;;
74160;SDS011;62512;-46.434;168.382;2022-08-03T02:15:21;18.0;;;4.1;;
74160;SDS011;62512;-46.434;168.382;2022-08-03T02:16:21;15.0;;;3.7;;
74160;SDS011;62512;-46.434;168.382;2022-08-03T02:18:20;17.0;;;3.4;;
74160;SDS011;62512;-46.434;168.382;2022-08-03T02:19:20;14.2;;;4.0;;
74160;SDS011;62512;-46.434;168.382;2022-08-03T02:20:20;17.2;;;3.3;;
74160;SDS011;62512;-46.434;168.382;2022-08-03T02:21:20;17.3;;;3.1;;
74160;SDS011;62512;-46.434;168.382;2022-08-03T02:22:21;17.0;;;3.5;;
74160;SDS011;62512;-46.434;168.382;2022-08-03T02:23:20;17.8;;;4.0;;
74160;SDS011;62512;-46.434;168.382;2022-08-03T02:24:20;17.8;;;4.0;;
74160;SDS011;62512;-46.434;168.382;2022-08-03T02:25:20;12.5;;;3.0;;
74160;SDS011;62512;-46.434;168.382;2022-08-03T02:26:21;13.4;;;3.5;;
74160;SDS011;62512;-46.434;168.382;2022-08-03T02:27:23;11.5;;;2.3;;
74160;SDS011;62512;-46.434;168.382;2022-08-03T02:28:23;10.6;;;3.0;;
74160;SDS011;62512;-46.434;168.382;2022-08-03T02:29:24;17.0;;;3.1;;
74160;SDS011;62512;-46.434;168.382;2022-08-03T02:30:21;10.5;;;2.8;;
74160;SDS011;62512;-46.434;168.382;2022-08-03T02:31:23;12.2;;;3.1;;
74160;SDS011;62512;-46.434;168.382;2022-08-03T02:33:26;20.0;;;4.8;;
74160;SDS011;62512;-46.434;168.382;2022-08-03T02:34:22;13.7;;;3.0;;
74160;SDS011;62512;-46.434;168.382;2022-08-03T02:36:24;15.7;;;2.9;;
74160;SDS011;62512;-46.434;168.382;2022-08-03T02:38:25;13.4;;;2.9;;
74160;SDS011;62512;-46.434;168.382;2022-08-03T02:39:22;13.4;;;3.7;;
74160;SDS011;62512;-46.434;168.382;2022-08-03T02:40:22;14.3;;;2.7;;
74160;SDS011;62512;-46.434;168.382;2022-08-03T02:42:21;12.4;;;2.7;;
74160;SDS011;62512;-46.434;168.382;2022-08-03T02:43:20;14.4;;;3.0;;
74160;SDS011;62512;-46.434;168.382;2022-08-03T02:44:23;11.2;;;2.5;;
74160;SDS011;62512;-46.434;168.382;2022-08-03T02:45:20;11.2;;;2.5;;
74160;SDS011;62512;-46.434;168.382;2022-08-03T02:46:23;12.1;;;3.1;;
74160;SDS011;62512;-46.434;168.382;2022-08-03T02:47:20;11.9;;;3.3;;
74160;SDS011;62512;-46.434;168.382;2022-08-03T02:48:24;13.7;;;2.8;;
74160;SDS011;62512;-46.434;168.382;2022-08-03T02:49:20;12.7;;;2.3;;
74160;SDS011;62512;-46.434;168.382;2022-08-03T02:50:21;11.8;;;2.8;;
74160;SDS011;62512;-46.434;168.382;2022-08-03T02:51:20;11.9;;;2.7;;
74160;SDS011;62512;-46.434;168.382;2022-08-03T02:52:22;11.1;;;2.1;;
74160;SDS011;62512;-46.434;168.382;2022-08-03T02:53:20;15.1;;;3.4;;
74160;SDS011;62512;-46.434;168.382;2022-08-03T02:54:22;12.2;;;2.9;;
74160;SDS011;62512;-46.434;168.382;2022-08-03T02:55:21;13.2;;;2.6;;
74160;SDS011;62512;-46.434;168.382;2022-08-03T02:56:22;9.6;;;2.3;;
74160;SDS011;62512;-46.434;168.382;2022-08-03T02:57:21;12.3;;;2.8;;
74160;SDS011;62512;-46.434;168.382;2022-08-03T02:58:21;11.2;;;2.3;;
74160;SDS011;62512;-46.434;168.382;2022-08-03T03:00:21;11.9;;;2.2;;
74160;SDS011;62512;-46.434;168.382;2022-08-03T03:01:21;10.8;;;2.0;;
74160;SDS011;62512;-46.434;168.382;2022-08-03T03:02:20;10.5;;;2.4;;
74160;SDS011;62512;-46.434;168.382;2022-08-03T03:03:20;10.6;;;2.1;;
74160;SDS011;62512;-46.434;168.382;2022-08-03T03:04:20;8.7;;;2.4;;
74160;SDS011;62512;-46.434;168.382;2022-08-03T03:05:20;9.0;;;1.9;;
74160;SDS011;62512;-46.434;168.382;2022-08-03T03:06:20;7.5;;;2.0;;
74160;SDS011;62512;-46.434;168.382;2022-08-03T03:07:20;9.2;;;2.2;;
74160;SDS011;62512;-46.434;168.382;2022-08-03T03:08:21;12.6;;;2.5;;
74160;SDS011;62512;-46.434;168.382;2022-08-03T03:09:20;9.9;;;2.5;;
74160;SDS011;62512;-46.434;168.382;2022-08-03T03:10:21;15.4;;;3.0;;
74160;SDS011;62512;-46.434;168.382;2022-08-03T03:11:21;12.4;;;2.4;;
74160;SDS011;62512;-46.434;168.382;2022-08-03T03:12:20;10.9;;;2.6;;
74160;SDS011;62512;-46.434;168.382;2022-08-03T03:13:20;13.5;;;3.7;;
74160;SDS011;62512;-46.434;168.382;2022-08-03T03:14:21;11.2;;;2.6;;
74160;SDS011;62512;-46.434;168.382;2022-08-03T03:15:21;13.4;;;3.0;;
74160;SDS011;62512;-46.434;168.382;2022-08-03T03:16:20;20.1;;;4.0;;
74160;SDS011;62512;-46.434;168.382;2022-08-03T03:17:21;13.3;;;3.2;;
74160;SDS011;62512;-46.434;168.382;2022-08-03T03:18:20;13.3;;;3.4;;
74160;SDS011;62512;-46.434;168.382;2022-08-03T03:19:20;10.7;;;2.6;;
74160;SDS011;62512;-46.434;168.382;2022-08-03T03:20:21;12.9;;;2.9;;
74160;SDS011;62512;-46.434;168.382;2022-08-03T03:21:21;14.1;;;2.8;;
74160;SDS011;62512;-46.434;168.382;2022-08-03T03:23:21;13.9;;;3.0;;
74160;SDS011;62512;-46.434;168.382;2022-08-03T03:24:20;15.1;;;3.5;;
74160;SDS011;62512;-46.434;168.382;2022-08-03T03:25:20;8.6;;;2.2;;
74160;SDS011;62512;-46.434;168.382;2022-08-03T03:26:20;13.3;;;3.2;;
74160;SDS011;62512;-46.434;168.382;2022-08-03T03:27:20;11.9;;;4.1;;
74160;SDS011;62512;-46.434;168.382;2022-08-03T03:28:20;14.8;;;3.4;;
74160;SDS011;62512;-46.434;168.382;2022-08-03T03:29:20;11.7;;;2.8;;
74160;SDS011;62512;-46.434;168.382;2022-08-03T03:30:20;11.8;;;2.9;;
74160;SDS011;62512;-46.434;168.382;2022-08-03T03:31:20;10.1;;;2.2;;
74160;SDS011;62512;-46.434;168.382;2022-08-03T03:32:20;7.4;;;1.7;;
74160;SDS011;62512;-46.434;168.382;2022-08-03T03:33:21;12.0;;;2.2;;
74160;SDS011;62512;-46.434;168.382;2022-08-03T03:34:21;10.2;;;2.3;;
74160;SDS011;62512;-46.434;168.382;2022-08-03T03:35:20;9.1;;;2.3;;
74160;SDS011;62512;-46.434;168.382;2022-08-03T03:36:20;10.5;;;2.2;;
74160;SDS011;62512;-46.434;168.382;2022-08-03T03:37:20;11.0;;;2.5;;
74160;SDS011;62512;-46.434;168.382;2022-08-03T03:38:20;11.6;;;2.4;;
74160;SDS011;62512;-46.434;168.382;2022-08-03T03:39:20;10.4;;;2.5;;
74160;SDS011;62512;-46.434;168.382;2022-08-03T03:40:20;10.5;;;2.1;;
74160;SDS011;62512;-46.434;168.382;2022-08-03T03:41:20;9.9;;;2.5;;
74160;SDS011;62512;-46.434;168.382;2022-08-03T03:42:20;11.0;;;3.0;;
74160;SDS011;62512;-46.434;168.382;2022-08-03T03:44:20;11.7;;;3.0;;
74160;SDS011;62512;-46.434;168.382;2022-08-03T03:45:21;11.1;;;2.9;;
74160;SDS011;62512;-46.434;168.382;2022-08-03T03:46:20;12.2;;;2.1;;
74160;SDS011;62512;-46.434;168.382;2022-08-03T03:47:20;14.5;;;2.9;;
74160;SDS011;62512;-46.434;168.382;2022-08-03T03:48:20;11.3;;;2.8;;
74160;SDS011;62512;-46.434;168.382;2022-08-03T03:49:20;10.5;;;2.4;;
74160;SDS011;62512;-46.434;168.382;2022-08-03T03:50:21;10.6;;;2.5;;
74160;SDS011;62512;-46.434;168.382;2022-08-03T03:51:20;11.9;;;2.8;;
74160;SDS011;62512;-46.434;168.382;2022-08-03T03:52:20;10.5;;;2.4;;
74160;SDS011;62512;-46.434;168.382;2022-08-03T03:53:20;12.2;;;3.1;;
74160;SDS011;62512;-46.434;168.382;2022-08-03T03:54:20;13.8;;;2.6;;
74160;SDS011;62512;-46.434;168.382;2022-08-03T03:55:20;13.6;;;3.5;;
74160;SDS011;62512;-46.434;168.382;2022-08-03T03:56:20;13.5;;;3.5;;
74160;SDS011;62512;-46.434;168.382;2022-08-03T03:58:20;13.4;;;2.9;;
74160;SDS011;62512;-46.434;168.382;2022-08-03T04:00:20;11.9;;;3.0;;
74160;SDS011;62512;-46.434;168.382;2022-08-03T04:02:20;17.9;;;3.4;;
74160;SDS011;62512;-46.434;168.382;2022-08-03T04:03:20;13.2;;;2.8;;
74160;SDS011;62512;-46.434;168.382;2022-08-03T04:04:20;14.3;;;2.8;;
74160;SDS011;62512;-46.434;168.382;2022-08-03T04:05:20;12.9;;;3.2;;
74160;SDS011;62512;-46.434;168.382;2022-08-03T04:07:20;14.5;;;2.8;;
74160;SDS011;62512;-46.434;168.382;2022-08-03T04:08:20;17.0;;;3.7;;
74160;SDS011;62512;-46.434;168.382;2022-08-03T04:09:20;15.5;;;4.3;;
74160;SDS011;62512;-46.434;168.382;2022-08-03T04:12:22;11.0;;;2.9;;
74160;SDS011;62512;-46.434;168.382;2022-08-03T04:13:21;17.6;;;3.6;;
74160;SDS011;62512;-46.434;168.382;2022-08-03T04:15:21;16.8;;;4.0;;
74160;SDS011;62512;-46.434;168.382;2022-08-03T04:16:23;17.2;;;3.8;;
74160;SDS011;62512;-46.434;168.382;2022-08-03T04:17:21;16.7;;;4.0;;
74160;SDS011;62512;-46.434;168.382;2022-08-03T04:18:20;13.2;;;3.5;;
74160;SDS011;62512;-46.434;168.382;2022-08-03T04:19:27;20.3;;;3.9;;
74160;SDS011;62512;-46.434;168.382;2022-08-03T04:20:20;18.0;;;3.3;;
74160;SDS011;62512;-46.434;168.382;2022-08-03T04:21:20;11.9;;;2.6;;
74160;SDS011;62512;-46.434;168.382;2022-08-03T04:22:26;17.9;;;3.9;;
74160;SDS011;62512;-46.434;168.382;2022-08-03T04:23:21;18.2;;;4.6;;
74160;SDS011;62512;-46.434;168.382;2022-08-03T04:30:21;16.2;;;3.0;;
74160;SDS011;62512;-46.434;168.382;2022-08-03T04:33:20;16.1;;;4.2;;
74160;SDS011;62512;-46.434;168.382;2022-08-03T04:35:20;20.2;;;3.8;;
74160;SDS011;62512;-46.434;168.382;2022-08-03T04:36:22;14.9;;;3.6;;
74160;SDS011;62512;-46.434;168.382;2022-08-03T04:37:30;15.4;;;3.5;;
74160;SDS011;62512;-46.434;168.382;2022-08-03T04:38:20;18.4;;;4.0;;
74160;SDS011;62512;-46.434;168.382;2022-08-03T04:40:30;19.2;;;3.5;;
74160;SDS011;62512;-46.434;168.382;2022-08-03T04:44:22;15.4;;;3.8;;
74160;SDS011;62512;-46.434;168.382;2022-08-03T04:46:23;13.7;;;3.5;;
74160;SDS011;62512;-46.434;168.382;2022-08-03T04:49:20;16.3;;;4.0;;
74160;SDS011;62512;-46.434;168.382;2022-08-03T04:52:20;18.6;;;3.5;;
74160;SDS011;62512;-46.434;168.382;2022-08-03T04:53:20;14.6;;;3.1;;
74160;SDS011;62512;-46.434;168.382;2022-08-03T04:54:20;10.3;;;3.1;;
74160;SDS011;62512;-46.434;168.382;2022-08-03T04:55:26;11.4;;;3.7;;
74160;SDS011;62512;-46.434;168.382;2022-08-03T04:56:20;13.1;;;3.8;;
74160;SDS011;62512;-46.434;168.382;2022-08-03T04:57:20;13.0;;;3.1;;
74160;SDS011;62512;-46.434;168.382;2022-08-03T04:58:20;14.3;;;4.1;;
74160;SDS011;62512;-46.434;168.382;2022-08-03T04:59:20;11.9;;;3.2;;
74160;SDS011;62512;-46.434;168.382;2022-08-03T05:00:20;17.7;;;4.6;;
74160;SDS011;62512;-46.434;168.382;2022-08-03T05:01:20;14.7;;;3.3;;
74160;SDS011;62512;-46.434;168.382;2022-08-03T05:02:20;12.7;;;3.5;;
74160;SDS011;62512;-46.434;168.382;2022-08-03T05:04:20;13.4;;;3.2;;
74160;SDS011;62512;-46.434;168.382;2022-08-03T05:05:20;17.7;;;3.5;;
74160;SDS011;62512;-46.434;168.382;2022-08-03T05:06:20;14.2;;;2.6;;
74160;SDS011;62512;-46.434;168.382;2022-08-03T05:07:20;13.7;;;3.6;;
74160;SDS011;62512;-46.434;168.382;2022-08-03T05:08:20;13.5;;;3.4;;
74160;SDS011;62512;-46.434;168.382;2022-08-03T05:09:20;13.8;;;3.2;;
74160;SDS011;62512;-46.434;168.382;2022-08-03T05:10:20;13.9;;;3.5;;
74160;SDS011;62512;-46.434;168.382;2022-08-03T05:11:20;13.8;;;3.6;;
74160;SDS011;62512;-46.434;168.382;2022-08-03T05:12:20;12.5;;;4.1;;
74160;SDS011;62512;-46.434;168.382;2022-08-03T05:13:20;11.1;;;3.0;;
74160;SDS011;62512;-46.434;168.382;2022-08-03T05:14:20;12.8;;;3.2;;
74160;SDS011;62512;-46.434;168.382;2022-08-03T05:15:20;13.5;;;2.9;;
74160;SDS011;62512;-46.434;168.382;2022-08-03T05:16:20;12.2;;;2.8;;
74160;SDS011;62512;-46.434;168.382;2022-08-03T05:17:20;13.8;;;3.3;;
74160;SDS011;62512;-46.434;168.382;2022-08-03T05:18:20;11.3;;;2.7;;
74160;SDS011;62512;-46.434;168.382;2022-08-03T05:19:20;13.2;;;3.8;;
74160;SDS011;62512;-46.434;168.382;2022-08-03T05:20:20;19.3;;;4.5;;
74160;SDS011;62512;-46.434;168.382;2022-08-03T05:21:20;17.2;;;4.8;;
74160;SDS011;62512;-46.434;168.382;2022-08-03T05:22:21;16.9;;;5.0;;
74160;SDS011;62512;-46.434;168.382;2022-08-03T05:23:20;18.8;;;6.5;;
74160;SDS011;62512;-46.434;168.382;2022-08-03T05:24:20;17.2;;;5.2;;
74160;SDS011;62512;-46.434;168.382;2022-08-03T05:25:20;18.7;;;6.5;;
74160;SDS011;62512;-46.434;168.382;2022-08-03T05:26:20;21.3;;;5.5;;
74160;SDS011;62512;-46.434;168.382;2022-08-03T05:27:20;17.6;;;6.6;;
74160;SDS011;62512;-46.434;168.382;2022-08-03T05:28:20;16.9;;;5.1;;
74160;SDS011;62512;-46.434;168.382;2022-08-03T05:29:20;15.1;;;4.1;;
74160;SDS011;62512;-46.434;168.382;2022-08-03T05:30:20;15.3;;;4.6;;
74160;SDS011;62512;-46.434;168.382;2022-08-03T05:31:20;18.8;;;5.6;;
74160;SDS011;62512;-46.434;168.382;2022-08-03T05:32:20;18.3;;;5.1;;
74160;SDS011;62512;-46.434;168.382;2022-08-03T05:33:20;15.8;;;4.7;;
74160;SDS011;62512;-46.434;168.382;2022-08-03T05:34:20;12.8;;;3.5;;
74160;SDS011;62512;-46.434;168.382;2022-08-03T05:35:20;12.7;;;4.0;;
74160;SDS011;62512;-46.434;168.382;2022-08-03T05:36:20;15.0;;;3.9;;
74160;SDS011;62512;-46.434;168.382;2022-08-03T05:37:20;17.9;;;4.1;;
74160;SDS011;62512;-46.434;168.382;2022-08-03T05:38:20;12.5;;;4.3;;
74160;SDS011;62512;-46.434;168.382;2022-08-03T05:39:20;11.7;;;4.2;;
74160;SDS011;62512;-46.434;168.382;2022-08-03T05:40:20;13.7;;;4.3;;
74160;SDS011;62512;-46.434;168.382;2022-08-03T05:41:20;13.9;;;5.0;;
74160;SDS011;62512;-46.434;168.382;2022-08-03T05:42:20;15.3;;;4.9;;
74160;SDS011;62512;-46.434;168.382;2022-08-03T05:43:20;13.8;;;4.9;;
74160;SDS011;62512;-46.434;168.382;2022-08-03T05:44:20;15.7;;;5.0;;
74160;SDS011;62512;-46.434;168.382;2022-08-03T05:45:20;16.0;;;5.6;;
74160;SDS011;62512;-46.434;168.382;2022-08-03T05:46:20;12.3;;;4.7;;
74160;SDS011;62512;-46.434;168.382;2022-08-03T05:47:20;16.9;;;5.3;;
74160;SDS011;62512;-46.434;168.382;2022-08-03T05:48:20;18.0;;;5.0;;
74160;SDS011;62512;-46.434;168.382;2022-08-03T05:49:20;15.7;;;5.5;;
74160;SDS011;62512;-46.434;168.382;2022-08-03T05:50:20;12.0;;;4.5;;
74160;SDS011;62512;-46.434;168.382;2022-08-03T05:51:20;16.1;;;6.1;;
74160;SDS011;62512;-46.434;168.382;2022-08-03T05:52:20;18.6;;;5.5;;
74160;SDS011;62512;-46.434;168.382;2022-08-03T05:53:20;17.1;;;5.6;;
74160;SDS011;62512;-46.434;168.382;2022-08-03T05:54:20;16.9;;;6.4;;
74160;SDS011;62512;-46.434;168.382;2022-08-03T05:55:20;16.5;;;6.3;;
74160;SDS011;62512;-46.434;168.382;2022-08-03T05:58:20;14.9;;;5.7;;
74160;SDS011;62512;-46.434;168.382;2022-08-03T05:59:20;14.9;;;4.9;;
74160;SDS011;62512;-46.434;168.382;2022-08-03T06:02:20;11.9;;;3.8;;
74160;SDS011;62512;-46.434;168.382;2022-08-03T06:03:20;13.4;;;4.2;;
74160;SDS011;62512;-46.434;168.382;2022-08-03T06:04:20;15.4;;;4.8;;
74160;SDS011;62512;-46.434;168.382;2022-08-03T06:07:20;17.8;;;5.8;;
74160;SDS011;62512;-46.434;168.382;2022-08-03T06:08:20;12.3;;;5.3;;
74160;SDS011;62512;-46.434;168.382;2022-08-03T06:10:20;15.7;;;6.4;;
74160;SDS011;62512;-46.434;168.382;2022-08-03T06:13:21;17.9;;;6.8;;
74160;SDS011;62512;-46.434;168.382;2022-08-03T06:14:20;17.9;;;4.9;;
74160;SDS011;62512;-46.434;168.382;2022-08-03T06:15:20;13.9;;;4.5;;
74160;SDS011;62512;-46.434;168.382;2022-08-03T06:16:20;12.0;;;3.9;;
74160;SDS011;62512;-46.434;168.382;2022-08-03T06:17:20;16.3;;;4.3;;
74160;SDS011;62512;-46.434;168.382;2022-08-03T06:18:20;11.2;;;4.2;;
74160;SDS011;62512;-46.434;168.382;2022-08-03T06:19:20;11.8;;;3.9;;
74160;SDS011;62512;-46.434;168.382;2022-08-03T06:20:20;14.0;;;3.9;;
74160;SDS011;62512;-46.434;168.382;2022-08-03T06:21:20;12.6;;;5.0;;
74160;SDS011;62512;-46.434;168.382;2022-08-03T06:22:20;14.5;;;5.0;;
74160;SDS011;62512;-46.434;168.382;2022-08-03T06:23:20;20.4;;;7.1;;
74160;SDS011;62512;-46.434;168.382;2022-08-03T06:24:20;17.4;;;8.6;;
74160;SDS011;62512;-46.434;168.382;2022-08-03T06:25:20;25.6;;;9.5;;
74160;SDS011;62512;-46.434;168.382;2022-08-03T06:26:20;16.9;;;5.3;;
74160;SDS011;62512;-46.434;168.382;2022-08-03T06:27:20;15.8;;;6.5;;
74160;SDS011;62512;-46.434;168.382;2022-08-03T06:28:20;19.1;;;7.3;;
74160;SDS011;62512;-46.434;168.382;2022-08-03T06:29:20;20.7;;;6.8;;
74160;SDS011;62512;-46.434;168.382;2022-08-03T06:30:20;13.6;;;5.8;;
74160;SDS011;62512;-46.434;168.382;2022-08-03T06:31:21;14.8;;;5.8;;
74160;SDS011;62512;-46.434;168.382;2022-08-03T06:32:20;17.0;;;6.2;;
74160;SDS011;62512;-46.434;168.382;2022-08-03T06:33:20;17.2;;;5.9;;
74160;SDS011;62512;-46.434;168.382;2022-08-03T06:34:20;14.9;;;4.8;;
74160;SDS011;62512;-46.434;168.382;2022-08-03T06:35:20;11.7;;;4.1;;
74160;SDS011;62512;-46.434;168.382;2022-08-03T06:36:20;14.7;;;4.0;;
74160;SDS011;62512;-46.434;168.382;2022-08-03T06:37:20;17.8;;;4.7;;
74160;SDS011;62512;-46.434;168.382;2022-08-03T06:38:20;12.1;;;4.7;;
74160;SDS011;62512;-46.434;168.382;2022-08-03T06:39:20;12.9;;;5.5;;
74160;SDS011;62512;-46.434;168.382;2022-08-03T06:40:21;17.6;;;6.6;;
74160;SDS011;62512;-46.434;168.382;2022-08-03T06:41:20;15.5;;;6.5;;
74160;SDS011;62512;-46.434;168.382;2022-08-03T06:42:20;14.6;;;6.3;;
74160;SDS011;62512;-46.434;168.382;2022-08-03T06:43:20;14.4;;;6.6;;
74160;SDS011;62512;-46.434;168.382;2022-08-03T06:44:20;18.2;;;7.0;;
74160;SDS011;62512;-46.434;168.382;2022-08-03T06:45:20;16.7;;;6.6;;
74160;SDS011;62512;-46.434;168.382;2022-08-03T06:46:20;18.8;;;6.5;;
74160;SDS011;62512;-46.434;168.382;2022-08-03T06:47:20;21.5;;;7.3;;
74160;SDS011;62512;-46.434;168.382;2022-08-03T06:48:20;15.2;;;6.9;;
74160;SDS011;62512;-46.434;168.382;2022-08-03T06:49:20;19.2;;;8.0;;
74160;SDS011;62512;-46.434;168.382;2022-08-03T06:50:20;20.3;;;8.2;;
74160;SDS011;62512;-46.434;168.382;2022-08-03T06:52:20;27.4;;;11.3;;
74160;SDS011;62512;-46.434;168.382;2022-08-03T06:53:20;25.4;;;10.7;;
74160;SDS011;62512;-46.434;168.382;2022-08-03T06:55:20;24.6;;;10.8;;